sensor_id;sensor_type;location;lat;lon;timestamp;pressure;altitude;pressure_sealevel;temperature;humidity
62978;BME280;49073;42.352;23.808;2022-09-13T00:01:37;94503.34;;;14.25;67.22
62978;BME280;49073;42.352;23.808;2022-09-13T00:04:38;94508.31;;;14.19;67.29
62978;BME280;49073;42.352;23.808;2022-09-13T00:07:38;94511.75;;;14.16;67.48
62978;BME280;49073;42.352;23.808;2022-09-13T00:10:41;94507.56;;;14.22;67.72
62978;BME280;49073;42.352;23.808;2022-09-13T00:13:44;94512.91;;;14.22;66.85
62978;BME280;49073;42.352;23.808;2022-09-13T00:16:44;94507.56;;;14.19;67.37
62978;BME280;49073;42.352;23.808;2022-09-13T00:19:45;94506.41;;;14.20;67.02
62978;BME280;49073;42.352;23.808;2022-09-13T00:22:46;94504.88;;;14.22;67.10
62978;BME280;49073;42.352;23.808;2022-09-13T00:25:46;94501.38;;;13.93;67.48
62978;BME280;49073;42.352;23.808;2022-09-13T00:28:57;94496.03;;;14.04;67.49
62978;BME280;49073;42.352;23.808;2022-09-13T00:31:58;94495.63;;;13.94;67.75
62978;BME280;49073;42.352;23.808;2022-09-13T00:34:58;94504.81;;;13.90;68.24
62978;BME280;49073;42.352;23.808;2022-09-13T00:37:59;94498.25;;;13.76;68.43
62978;BME280;49073;42.352;23.808;2022-09-13T00:41:02;94491.75;;;13.77;68.58
62978;BME280;49073;42.352;23.808;2022-09-13T00:44:03;94498.25;;;13.76;69.06
62978;BME280;49073;42.352;23.808;2022-09-13T00:47:05;94495.19;;;13.67;68.89
62978;BME280;49073;42.352;23.808;2022-09-13T00:50:26;94492.16;;;13.83;68.58
62978;BME280;49073;42.352;23.808;2022-09-13T00:53:34;94485.25;;;13.82;68.73
62978;BME280;49073;42.352;23.808;2022-09-13T00:56:40;94485.63;;;13.77;69.07
62978;BME280;49073;42.352;23.808;2022-09-13T00:59:48;94481.03;;;13.74;68.95
62978;BME280;49073;42.352;23.808;2022-09-13T01:02:56;94486.81;;;13.87;68.97
62978;BME280;49073;42.352;23.808;2022-09-13T01:06:10;94479.16;;;13.85;68.71
62978;BME280;49073;42.352;23.808;2022-09-13T01:09:12;94474.91;;;13.77;68.84
62978;BME280;49073;42.352;23.808;2022-09-13T01:12:37;94475.31;;;13.75;69.06
62978;BME280;49073;42.352;23.808;2022-09-13T01:15:40;94476.81;;;13.73;69.09
62978;BME280;49073;42.352;23.808;2022-09-13T01:18:41;94473.00;;;13.74;68.90
62978;BME280;49073;42.352;23.808;2022-09-13T01:21:54;94468.41;;;13.74;68.70
62978;BME280;49073;42.352;23.808;2022-09-13T01:42:06;94451.63;;;14.06;68.54
62978;BME280;49073;42.352;23.808;2022-09-13T01:45:26;94452.78;;;14.02;68.07
62978;BME280;49073;42.352;23.808;2022-09-13T01:52:06;94450.84;;;14.02;67.74
62978;BME280;49073;42.352;23.808;2022-09-13T01:58:47;94444.00;;;14.23;67.88
62978;BME280;49073;42.352;23.808;2022-09-13T02:08:44;94453.19;;;14.25;67.11
62978;BME280;49073;42.352;23.808;2022-09-13T02:11:51;94454.34;;;14.28;66.08
62978;BME280;49073;42.352;23.808;2022-09-13T02:14:59;94453.59;;;14.31;65.97
62978;BME280;49073;42.352;23.808;2022-09-13T02:18:08;94455.13;;;14.32;66.24
62978;BME280;49073;42.352;23.808;2022-09-13T02:21:23;94455.13;;;14.39;65.90
62978;BME280;49073;42.352;23.808;2022-09-13T02:24:32;94443.22;;;14.37;65.77
62978;BME280;49073;42.352;23.808;2022-09-13T02:27:34;94444.41;;;14.32;65.92
62978;BME280;49073;42.352;23.808;2022-09-13T02:30:38;94440.56;;;14.40;66.48
62978;BME280;49073;42.352;23.808;2022-09-13T02:33:44;94447.06;;;14.43;65.96
62978;BME280;49073;42.352;23.808;2022-09-13T02:36:49;94440.94;;;14.50;65.75
62978;BME280;49073;42.352;23.808;2022-09-13T02:39:56;94434.81;;;14.57;65.70
62978;BME280;49073;42.352;23.808;2022-09-13T02:43:12;94436.34;;;14.58;66.03
62978;BME280;49073;42.352;23.808;2022-09-13T02:49:47;94442.81;;;14.67;66.14
62978;BME280;49073;42.352;23.808;2022-09-13T02:56:53;94433.28;;;14.63;65.10
62978;BME280;49073;42.352;23.808;2022-09-13T02:59:55;94441.34;;;14.70;64.50
62978;BME280;49073;42.352;23.808;2022-09-13T03:02:57;94449.38;;;14.55;65.16
62978;BME280;49073;42.352;23.808;2022-09-13T03:06:01;94440.53;;;14.62;65.01
62978;BME280;49073;42.352;23.808;2022-09-13T03:09:03;94448.59;;;14.55;65.31
62978;BME280;49073;42.352;23.808;2022-09-13T03:12:16;94454.34;;;14.57;65.53
62978;BME280;49073;42.352;23.808;2022-09-13T03:22:51;94445.53;;;14.46;66.04
62978;BME280;49073;42.352;23.808;2022-09-13T03:36:58;94463.16;;;14.25;68.14
62978;BME280;49073;42.352;23.808;2022-09-13T03:49:19;94463.13;;;14.07;69.50
62978;BME280;49073;42.352;23.808;2022-09-13T03:52:22;94460.06;;;13.98;69.96
62978;BME280;49073;42.352;23.808;2022-09-13T03:55:23;94464.19;;;13.77;70.25
62978;BME280;49073;42.352;23.808;2022-09-13T03:58:25;94465.38;;;13.79;71.08
62978;BME280;49073;42.352;23.808;2022-09-13T04:01:27;94461.50;;;13.59;72.38
62978;BME280;49073;42.352;23.808;2022-09-13T04:04:28;94461.44;;;13.51;73.18
62978;BME280;49073;42.352;23.808;2022-09-13T04:07:28;94471.00;;;13.52;73.52
62978;BME280;49073;42.352;23.808;2022-09-13T04:10:29;94471.00;;;13.52;73.75
62978;BME280;49073;42.352;23.808;2022-09-13T04:13:30;94464.91;;;13.52;74.10
62978;BME280;49073;42.352;23.808;2022-09-13T04:16:31;94472.50;;;13.46;73.85
62978;BME280;49073;42.352;23.808;2022-09-13T04:19:31;94468.94;;;13.24;74.54
62978;BME280;49073;42.352;23.808;2022-09-13T04:22:32;94467.03;;;13.17;75.26
62978;BME280;49073;42.352;23.808;2022-09-13T04:25:33;94464.31;;;13.10;75.52
62978;BME280;49073;42.352;23.808;2022-09-13T04:28:34;94472.69;;;13.08;75.65
62978;BME280;49073;42.352;23.808;2022-09-13T04:31:34;94470.81;;;13.13;75.99
62978;BME280;49073;42.352;23.808;2022-09-13T04:34:35;94479.66;;;13.20;76.08
62978;BME280;49073;42.352;23.808;2022-09-13T04:37:35;94473.53;;;13.23;76.09
62978;BME280;49073;42.352;23.808;2022-09-13T04:40:36;94483.53;;;13.34;75.43
62978;BME280;49073;42.352;23.808;2022-09-13T04:43:38;94482.78;;;13.37;75.05
62978;BME280;49073;42.352;23.808;2022-09-13T04:46:38;94478.19;;;13.37;75.17
62978;BME280;49073;42.352;23.808;2022-09-13T04:49:39;94480.56;;;13.50;74.10
62978;BME280;49073;42.352;23.808;2022-09-13T04:52:39;94485.19;;;13.57;73.66
62978;BME280;49073;42.352;23.808;2022-09-13T04:55:40;94485.97;;;13.64;73.39
62978;BME280;49073;42.352;23.808;2022-09-13T04:58:41;94492.88;;;13.73;73.41
62978;BME280;49073;42.352;23.808;2022-09-13T05:01:41;94492.53;;;13.81;73.28
62978;BME280;49073;42.352;23.808;2022-09-13T05:04:43;94500.22;;;13.90;73.26
62978;BME280;49073;42.352;23.808;2022-09-13T05:07:43;94498.31;;;13.98;72.51
62978;BME280;49073;42.352;23.808;2022-09-13T05:10:45;94489.16;;;14.03;71.77
62978;BME280;49073;42.352;23.808;2022-09-13T05:13:50;94495.28;;;14.10;72.06
62978;BME280;49073;42.352;23.808;2022-09-13T05:16:54;94493.78;;;14.17;71.30
62978;BME280;49073;42.352;23.808;2022-09-13T05:19:54;94495.31;;;14.18;71.98
62978;BME280;49073;42.352;23.808;2022-09-13T05:22:55;94497.22;;;14.24;71.10
62978;BME280;49073;42.352;23.808;2022-09-13T05:25:58;94494.53;;;14.32;70.80
62978;BME280;49073;42.352;23.808;2022-09-13T05:28:59;94494.94;;;14.37;70.35
62978;BME280;49073;42.352;23.808;2022-09-13T05:32:00;94494.56;;;14.43;70.10
62978;BME280;49073;42.352;23.808;2022-09-13T05:35:00;94491.50;;;14.48;70.51
62978;BME280;49073;42.352;23.808;2022-09-13T05:38:00;94489.19;;;14.57;69.91
62978;BME280;49073;42.352;23.808;2022-09-13T05:41:03;94480.00;;;14.65;69.37
62978;BME280;49073;42.352;23.808;2022-09-13T05:44:04;94480.78;;;14.73;69.09
62978;BME280;49073;42.352;23.808;2022-09-13T05:47:04;94491.13;;;14.82;68.42
62978;BME280;49073;42.352;23.808;2022-09-13T05:50:05;94488.81;;;14.88;68.47
62978;BME280;49073;42.352;23.808;2022-09-13T05:53:06;94486.13;;;14.91;67.54
62978;BME280;49073;42.352;23.808;2022-09-13T05:56:08;94488.44;;;14.96;67.30
62978;BME280;49073;42.352;23.808;2022-09-13T05:59:12;94494.56;;;15.01;66.80
62978;BME280;49073;42.352;23.808;2022-09-13T06:02:13;94489.16;;;15.08;67.03
62978;BME280;49073;42.352;23.808;2022-09-13T06:05:14;94495.28;;;15.12;66.70
62978;BME280;49073;42.352;23.808;2022-09-13T06:08:15;94500.66;;;15.19;66.38
62978;BME280;49073;42.352;23.808;2022-09-13T06:11:15;94489.13;;;15.30;65.91
62978;BME280;49073;42.352;23.808;2022-09-13T06:14:16;94496.78;;;15.35;65.85
62978;BME280;49073;42.352;23.808;2022-09-13T06:17:16;94497.13;;;15.48;65.14
62978;BME280;49073;42.352;23.808;2022-09-13T06:20:17;94494.44;;;15.48;65.37
62978;BME280;49073;42.352;23.808;2022-09-13T06:23:17;94498.25;;;15.57;64.33
62978;BME280;49073;42.352;23.808;2022-09-13T06:26:20;94499.38;;;15.60;62.88
62978;BME280;49073;42.352;23.808;2022-09-13T06:29:21;94493.63;;;15.65;63.53
62978;BME280;49073;42.352;23.808;2022-09-13T06:32:21;94495.50;;;15.72;63.78
62978;BME280;49073;42.352;23.808;2022-09-13T06:35:22;94500.44;;;15.77;62.33
62978;BME280;49073;42.352;23.808;2022-09-13T06:38:23;94508.84;;;15.86;62.39
62978;BME280;49073;42.352;23.808;2022-09-13T06:41:24;94513.47;;;15.97;63.66
62978;BME280;49073;42.352;23.808;2022-09-13T06:44:26;94512.22;;;16.12;62.54
62978;BME280;49073;42.352;23.808;2022-09-13T06:47:26;94510.25;;;16.20;62.41
62978;BME280;49073;42.352;23.808;2022-09-13T06:50:27;94516.75;;;16.23;62.39
62978;BME280;49073;42.352;23.808;2022-09-13T06:53:27;94515.56;;;16.31;60.35
62978;BME280;49073;42.352;23.808;2022-09-13T06:56:31;94512.50;;;16.29;60.29
62978;BME280;49073;42.352;23.808;2022-09-13T06:59:31;94522.41;;;16.43;60.04
62978;BME280;49073;42.352;23.808;2022-09-13T07:02:34;94511.94;;;16.56;58.99
62978;BME280;49073;42.352;23.808;2022-09-13T07:05:34;94504.25;;;16.58;57.11
62978;BME280;49073;42.352;23.808;2022-09-13T07:08:35;94516.47;;;16.66;57.21
62978;BME280;49073;42.352;23.808;2022-09-13T07:11:39;94518.25;;;16.84;57.33
62978;BME280;49073;42.352;23.808;2022-09-13T07:14:40;94510.84;;;16.99;55.72
62978;BME280;49073;42.352;23.808;2022-09-13T07:17:40;94514.28;;;16.99;56.11
62978;BME280;49073;42.352;23.808;2022-09-13T07:20:40;94512.66;;;17.13;53.74
62978;BME280;49073;42.352;23.808;2022-09-13T07:23:41;94516.19;;;17.41;54.30
62978;BME280;49073;42.352;23.808;2022-09-13T07:26:41;94521.16;;;17.46;53.18
62978;BME280;49073;42.352;23.808;2022-09-13T07:29:42;94525.78;;;17.45;53.79
62978;BME280;49073;42.352;23.808;2022-09-13T07:32:42;94520.25;;;17.22;54.10
62978;BME280;49073;42.352;23.808;2022-09-13T07:35:43;94528.31;;;17.22;52.00
62978;BME280;49073;42.352;23.808;2022-09-13T07:38:43;94532.78;;;17.39;52.59
62978;BME280;49073;42.352;23.808;2022-09-13T07:41:50;94525.34;;;17.51;49.95
62978;BME280;49073;42.352;23.808;2022-09-13T07:44:51;94520.63;;;17.58;49.57
62978;BME280;49073;42.352;23.808;2022-09-13T07:47:51;94524.34;;;17.72;50.61
62978;BME280;49073;42.352;23.808;2022-09-13T07:51:01;94528.75;;;17.55;49.48
62978;BME280;49073;42.352;23.808;2022-09-13T07:54:05;94532.03;;;17.35;46.95
62978;BME280;49073;42.352;23.808;2022-09-13T07:57:06;94530.69;;;17.16;48.37
62978;BME280;49073;42.352;23.808;2022-09-13T08:00:07;94528.59;;;17.35;47.82
62978;BME280;49073;42.352;23.808;2022-09-13T08:03:10;94532.19;;;17.55;47.34
62978;BME280;49073;42.352;23.808;2022-09-13T08:06:10;94530.38;;;17.83;48.40
62978;BME280;49073;42.352;23.808;2022-09-13T08:09:11;94529.44;;;17.97;47.94
62978;BME280;49073;42.352;23.808;2022-09-13T08:12:13;94532.97;;;17.91;46.07
62978;BME280;49073;42.352;23.808;2022-09-13T08:15:13;94543.38;;;17.88;48.01
62978;BME280;49073;42.352;23.808;2022-09-13T08:18:18;94535.69;;;17.87;48.31
62978;BME280;49073;42.352;23.808;2022-09-13T08:21:18;94537.84;;;18.03;47.02
62978;BME280;49073;42.352;23.808;2022-09-13T08:24:20;94536.56;;;18.11;45.33
62978;BME280;49073;42.352;23.808;2022-09-13T08:27:21;94540.53;;;18.34;46.32
62978;BME280;49073;42.352;23.808;2022-09-13T08:30:21;94540.97;;;17.98;46.92
62978;BME280;49073;42.352;23.808;2022-09-13T08:33:22;94542.84;;;17.70;48.66
62978;BME280;49073;42.352;23.808;2022-09-13T08:36:23;94545.41;;;17.46;49.13
62978;BME280;49073;42.352;23.808;2022-09-13T08:39:24;94532.44;;;17.72;49.53
62978;BME280;49073;42.352;23.808;2022-09-13T08:43:01;94526.50;;;18.15;45.58
62978;BME280;49073;42.352;23.808;2022-09-13T08:49:31;94533.28;;;18.55;44.39
62978;BME280;49073;42.352;23.808;2022-09-13T08:59:28;94534.03;;;17.97;46.07
62978;BME280;49073;42.352;23.808;2022-09-13T09:05:45;94535.22;;;17.96;45.88
62978;BME280;49073;42.352;23.808;2022-09-13T09:08:48;94545.19;;;18.02;46.85
62978;BME280;49073;42.352;23.808;2022-09-13T09:12:05;94540.50;;;18.07;45.08
62978;BME280;49073;42.352;23.808;2022-09-13T09:15:15;94541.41;;;18.24;44.67
62978;BME280;49073;42.352;23.808;2022-09-13T09:18:19;94541.13;;;18.18;44.76
62978;BME280;49073;42.352;23.808;2022-09-13T09:21:22;94532.34;;;18.65;44.88
62978;BME280;49073;42.352;23.808;2022-09-13T09:24:24;94523.59;;;19.09;44.34
62978;BME280;49073;42.352;23.808;2022-09-13T09:27:24;94520.50;;;19.30;43.41
62978;BME280;49073;42.352;23.808;2022-09-13T09:37:25;94533.56;;;19.12;42.91
62978;BME280;49073;42.352;23.808;2022-09-13T09:40:27;94532.56;;;18.78;44.56
62978;BME280;49073;42.352;23.808;2022-09-13T09:43:58;94531.72;;;18.57;44.55
62978;BME280;49073;42.352;23.808;2022-09-13T09:47:02;94534.81;;;18.56;43.70
62978;BME280;49073;42.352;23.808;2022-09-13T09:50:09;94535.59;;;18.80;44.30
62978;BME280;49073;42.352;23.808;2022-09-13T09:53:18;94533.66;;;18.81;42.16
62978;BME280;49073;42.352;23.808;2022-09-13T09:56:29;94525.75;;;18.70;43.87
62978;BME280;49073;42.352;23.808;2022-09-13T09:59:31;94533.59;;;18.60;44.26
62978;BME280;49073;42.352;23.808;2022-09-13T10:02:34;94528.59;;;18.59;45.45
62978;BME280;49073;42.352;23.808;2022-09-13T10:05:36;94528.13;;;18.64;44.79
62978;BME280;49073;42.352;23.808;2022-09-13T10:08:39;94527.03;;;18.61;44.71
62978;BME280;49073;42.352;23.808;2022-09-13T10:14:47;94507.56;;;19.42;42.38
62978;BME280;49073;42.352;23.808;2022-09-13T10:24:20;94495.84;;;20.09;41.50
62978;BME280;49073;42.352;23.808;2022-09-13T10:27:41;94488.91;;;20.08;40.58
62978;BME280;49073;42.352;23.808;2022-09-13T10:30:47;94493.00;;;19.76;40.66
62978;BME280;49073;42.352;23.808;2022-09-13T10:33:57;94481.47;;;19.55;41.75
62978;BME280;49073;42.352;23.808;2022-09-13T10:37:13;94482.13;;;19.80;41.66
62978;BME280;49073;42.352;23.808;2022-09-13T10:40:29;94474.97;;;20.26;40.80
62978;BME280;49073;42.352;23.808;2022-09-13T10:43:31;94479.56;;;20.46;39.42
62978;BME280;49073;42.352;23.808;2022-09-13T10:46:38;94468.31;;;20.64;39.43
62978;BME280;49073;42.352;23.808;2022-09-13T10:49:53;94469.16;;;20.77;36.64
62978;BME280;49073;42.352;23.808;2022-09-13T10:52:56;94466.53;;;21.07;39.54
62978;BME280;49073;42.352;23.808;2022-09-13T10:55:57;94462.47;;;20.66;39.58
62978;BME280;49073;42.352;23.808;2022-09-13T11:05:42;94447.84;;;20.13;42.59
62978;BME280;49073;42.352;23.808;2022-09-13T11:22:14;94445.63;;;20.91;38.94
62978;BME280;49073;42.352;23.808;2022-09-13T11:32:36;94430.81;;;21.68;37.46
62978;BME280;49073;42.352;23.808;2022-09-13T11:39:33;94430.53;;;21.91;37.36
62978;BME280;49073;42.352;23.808;2022-09-13T11:45:41;94425.53;;;22.03;37.38
62978;BME280;49073;42.352;23.808;2022-09-13T11:56:18;94419.56;;;21.95;36.24
62978;BME280;49073;42.352;23.808;2022-09-13T12:00:04;94415.00;;;22.05;36.59
62978;BME280;49073;42.352;23.808;2022-09-13T12:06:14;94412.06;;;22.25;36.79
62978;BME280;49073;42.352;23.808;2022-09-13T12:09:29;94403.72;;;22.19;36.02
62978;BME280;49073;42.352;23.808;2022-09-13T12:12:34;94408.16;;;22.26;36.97
62978;BME280;49073;42.352;23.808;2022-09-13T12:15:39;94404.91;;;22.31;36.95
62978;BME280;49073;42.352;23.808;2022-09-13T12:18:43;94410.88;;;22.13;36.78
62978;BME280;49073;42.352;23.808;2022-09-13T12:21:46;94404.06;;;21.96;35.83
62978;BME280;49073;42.352;23.808;2022-09-13T12:24:51;94413.16;;;22.15;37.05
62978;BME280;49073;42.352;23.808;2022-09-13T12:28:17;94413.91;;;22.15;36.41
62978;BME280;49073;42.352;23.808;2022-09-13T12:31:27;94404.25;;;22.27;36.01
62978;BME280;49073;42.352;23.808;2022-09-13T12:44:53;94391.00;;;22.03;36.72
62978;BME280;49073;42.352;23.808;2022-09-13T12:51:49;94388.09;;;22.11;36.61
62978;BME280;49073;42.352;23.808;2022-09-13T13:01:49;94382.72;;;22.33;36.02
62978;BME280;49073;42.352;23.808;2022-09-13T13:04:52;94387.44;;;21.93;36.52
62978;BME280;49073;42.352;23.808;2022-09-13T13:11:25;94377.44;;;22.03;36.25
62978;BME280;49073;42.352;23.808;2022-09-13T13:17:49;94386.31;;;22.43;35.64
62978;BME280;49073;42.352;23.808;2022-09-13T13:27:36;94401.16;;;22.64;35.39
62978;BME280;49073;42.352;23.808;2022-09-13T13:33:54;94399.50;;;22.66;35.91
62978;BME280;49073;42.352;23.808;2022-09-13T13:37:01;94406.81;;;22.70;34.69
62978;BME280;49073;42.352;23.808;2022-09-13T13:43:27;94400.63;;;22.56;35.02
62978;BME280;49073;42.352;23.808;2022-09-13T13:46:30;94407.41;;;22.51;35.44
62978;BME280;49073;42.352;23.808;2022-09-13T13:55:48;94415.50;;;22.64;36.17
62978;BME280;49073;42.352;23.808;2022-09-13T13:59:32;94402.91;;;22.58;35.00
62978;BME280;49073;42.352;23.808;2022-09-13T14:03:08;94401.84;;;22.42;34.65
62978;BME280;49073;42.352;23.808;2022-09-13T14:06:16;94413.47;;;22.30;36.49
62978;BME280;49073;42.352;23.808;2022-09-13T14:09:38;94410.97;;;22.22;35.37
62978;BME280;49073;42.352;23.808;2022-09-13T14:13:05;94411.75;;;22.10;34.38
62978;BME280;49073;42.352;23.808;2022-09-13T14:19:54;94425.41;;;22.06;35.81
62978;BME280;49073;42.352;23.808;2022-09-13T14:23:30;94423.56;;;22.03;35.77
62978;BME280;49073;42.352;23.808;2022-09-13T14:26:31;94421.84;;;21.97;35.44
62978;BME280;49073;42.352;23.808;2022-09-13T14:29:31;94431.06;;;21.86;36.23
62978;BME280;49073;42.352;23.808;2022-09-13T14:32:46;94421.09;;;21.83;36.30
62978;BME280;49073;42.352;23.808;2022-09-13T14:35:57;94428.22;;;21.77;35.40
62978;BME280;49073;42.352;23.808;2022-09-13T14:38:58;94436.69;;;21.79;35.90
62978;BME280;49073;42.352;23.808;2022-09-13T14:42:13;94431.44;;;21.59;35.82
62978;BME280;49073;42.352;23.808;2022-09-13T14:48:24;94426.66;;;21.50;36.31
62978;BME280;49073;42.352;23.808;2022-09-13T14:51:49;94434.75;;;21.37;36.30
62978;BME280;49073;42.352;23.808;2022-09-13T14:54:54;94438.94;;;21.25;36.52
62978;BME280;49073;42.352;23.808;2022-09-13T14:57:59;94439.22;;;21.14;36.70
62978;BME280;49073;42.352;23.808;2022-09-13T15:01:07;94440.09;;;21.11;37.01
62978;BME280;49073;42.352;23.808;2022-09-13T15:04:08;94444.97;;;21.16;35.79
62978;BME280;49073;42.352;23.808;2022-09-13T15:07:36;94437.38;;;21.11;36.69
62978;BME280;49073;42.352;23.808;2022-09-13T15:10:42;94446.63;;;20.97;38.33
62978;BME280;49073;42.352;23.808;2022-09-13T15:13:43;94434.38;;;20.76;37.19
62978;BME280;49073;42.352;23.808;2022-09-13T15:16:49;94441.94;;;20.68;38.14
62978;BME280;49073;42.352;23.808;2022-09-13T15:20:02;94439.38;;;20.61;38.71
62978;BME280;49073;42.352;23.808;2022-09-13T15:23:12;94445.47;;;20.48;39.52
62978;BME280;49073;42.352;23.808;2022-09-13T15:26:24;94438.19;;;20.45;40.23
62978;BME280;49073;42.352;23.808;2022-09-13T15:29:25;94437.88;;;20.43;40.80
62978;BME280;49073;42.352;23.808;2022-09-13T15:32:39;94444.13;;;20.40;40.85
62978;BME280;49073;42.352;23.808;2022-09-13T15:35:42;94443.88;;;20.34;44.05
62978;BME280;49073;42.352;23.808;2022-09-13T15:38:57;94456.28;;;20.15;42.14
62978;BME280;49073;42.352;23.808;2022-09-13T15:41:59;94455.28;;;20.09;43.65
62978;BME280;49073;42.352;23.808;2022-09-13T15:45:00;94461.31;;;19.97;41.73
62978;BME280;49073;42.352;23.808;2022-09-13T15:48:00;94457.19;;;19.92;41.61
62978;BME280;49073;42.352;23.808;2022-09-13T15:54:14;94452.97;;;19.71;44.03
62978;BME280;49073;42.352;23.808;2022-09-13T15:57:22;94452.34;;;19.63;43.60
62978;BME280;49073;42.352;23.808;2022-09-13T16:00:25;94459.56;;;19.50;45.74
62978;BME280;49073;42.352;23.808;2022-09-13T16:03:27;94463.09;;;19.46;45.95
62978;BME280;49073;42.352;23.808;2022-09-13T16:06:27;94459.06;;;19.34;47.29
62978;BME280;49073;42.352;23.808;2022-09-13T16:09:28;94464.75;;;19.20;48.52
62978;BME280;49073;42.352;23.808;2022-09-13T16:12:28;94468.75;;;19.12;50.05
62978;BME280;49073;42.352;23.808;2022-09-13T16:15:29;94474.78;;;18.99;50.08
62978;BME280;49073;42.352;23.808;2022-09-13T16:18:30;94472.66;;;18.87;51.35
62978;BME280;49073;42.352;23.808;2022-09-13T16:21:30;94470.16;;;18.72;52.06
62978;BME280;49073;42.352;23.808;2022-09-13T16:24:31;94482.75;;;18.55;53.94
62978;BME280;49073;42.352;23.808;2022-09-13T16:27:32;94484.84;;;18.48;54.91
62978;BME280;49073;42.352;23.808;2022-09-13T16:30:32;94490.50;;;18.29;55.15
62978;BME280;49073;42.352;23.808;2022-09-13T16:33:33;94492.72;;;18.07;55.71
62978;BME280;49073;42.352;23.808;2022-09-13T16:36:34;94493.94;;;18.02;56.16
62978;BME280;49073;42.352;23.808;2022-09-13T16:39:34;94494.41;;;17.63;55.91
62978;BME280;49073;42.352;23.808;2022-09-13T16:42:35;94492.47;;;17.28;57.92
62978;BME280;49073;42.352;23.808;2022-09-13T16:45:40;94496.06;;;17.14;58.23
62978;BME280;49073;42.352;23.808;2022-09-13T16:48:40;94496.94;;;17.04;59.11
62978;BME280;49073;42.352;23.808;2022-09-13T16:51:41;94499.72;;;16.93;59.04
62978;BME280;49073;42.352;23.808;2022-09-13T16:54:41;94503.53;;;16.99;56.88
62978;BME280;49073;42.352;23.808;2022-09-13T16:57:45;94508.16;;;16.95;57.16
62978;BME280;49073;42.352;23.808;2022-09-13T17:00:48;94499.47;;;16.77;56.32
62978;BME280;49073;42.352;23.808;2022-09-13T17:03:50;94511.41;;;16.76;56.97
62978;BME280;49073;42.352;23.808;2022-09-13T17:06:50;94509.69;;;16.47;57.86
62978;BME280;49073;42.352;23.808;2022-09-13T17:09:51;94522.50;;;16.28;59.05
62978;BME280;49073;42.352;23.808;2022-09-13T17:12:51;94529.41;;;16.26;59.19
62978;BME280;49073;42.352;23.808;2022-09-13T17:15:52;94534.56;;;16.02;60.05
62978;BME280;49073;42.352;23.808;2022-09-13T17:18:54;94535.72;;;15.97;61.13
62978;BME280;49073;42.352;23.808;2022-09-13T17:21:56;94538.81;;;15.81;60.12
62978;BME280;49073;42.352;23.808;2022-09-13T17:24:57;94547.31;;;15.69;60.88
62978;BME280;49073;42.352;23.808;2022-09-13T17:27:57;94553.06;;;15.71;60.71
62978;BME280;49073;42.352;23.808;2022-09-13T17:30:58;94555.75;;;15.71;60.77
62978;BME280;49073;42.352;23.808;2022-09-13T17:33:58;94563.00;;;15.81;59.59
62978;BME280;49073;42.352;23.808;2022-09-13T17:36:59;94564.53;;;15.82;59.30
62978;BME280;49073;42.352;23.808;2022-09-13T17:40:00;94568.78;;;15.91;58.07
62978;BME280;49073;42.352;23.808;2022-09-13T17:43:01;94574.09;;;16.02;57.10
62978;BME280;49073;42.352;23.808;2022-09-13T17:46:03;94576.38;;;16.07;56.13
62978;BME280;49073;42.352;23.808;2022-09-13T17:49:04;94583.31;;;16.04;55.96
62978;BME280;49073;42.352;23.808;2022-09-13T17:52:05;94597.13;;;16.03;56.25
62978;BME280;49073;42.352;23.808;2022-09-13T17:55:07;94594.44;;;16.03;56.11
62978;BME280;49073;42.352;23.808;2022-09-13T17:58:08;94596.34;;;16.06;58.29
62978;BME280;49073;42.352;23.808;2022-09-13T18:01:09;94603.69;;;15.94;57.07
62978;BME280;49073;42.352;23.808;2022-09-13T18:04:11;94608.31;;;15.94;56.65
62978;BME280;49073;42.352;23.808;2022-09-13T18:07:11;94612.91;;;15.86;56.82
62978;BME280;49073;42.352;23.808;2022-09-13T18:10:12;94615.22;;;15.84;56.02
62978;BME280;49073;42.352;23.808;2022-09-13T18:13:12;94612.91;;;15.82;57.00
62978;BME280;49073;42.352;23.808;2022-09-13T18:16:22;94611.00;;;15.76;56.58
62978;BME280;49073;42.352;23.808;2022-09-13T18:19:23;94610.22;;;15.82;56.95
62978;BME280;49073;42.352;23.808;2022-09-13T18:22:23;94615.22;;;15.80;57.45
62978;BME280;49073;42.352;23.808;2022-09-13T18:25:24;94622.13;;;15.78;56.83
62978;BME280;49073;42.352;23.808;2022-09-13T18:28:26;94612.97;;;15.64;56.39
62978;BME280;49073;42.352;23.808;2022-09-13T18:31:28;94618.72;;;15.63;56.51
62978;BME280;49073;42.352;23.808;2022-09-13T18:34:29;94615.63;;;15.57;55.68
62978;BME280;49073;42.352;23.808;2022-09-13T18:37:30;94621.00;;;15.61;56.27
62978;BME280;49073;42.352;23.808;2022-09-13T18:40:31;94626.41;;;15.64;55.85
62978;BME280;49073;42.352;23.808;2022-09-13T18:43:33;94620.63;;;15.59;55.93
62978;BME280;49073;42.352;23.808;2022-09-13T18:46:34;94622.19;;;15.63;57.44
62978;BME280;49073;42.352;23.808;2022-09-13T18:49:35;94621.41;;;15.55;57.15
62978;BME280;49073;42.352;23.808;2022-09-13T18:52:38;94625.25;;;15.54;57.72
62978;BME280;49073;42.352;23.808;2022-09-13T18:55:38;94629.09;;;15.50;57.38
62978;BME280;49073;42.352;23.808;2022-09-13T18:58:40;94625.66;;;15.49;56.90
62978;BME280;49073;42.352;23.808;2022-09-13T19:01:42;94620.25;;;15.46;56.75
62978;BME280;49073;42.352;23.808;2022-09-13T19:04:43;94624.88;;;15.49;56.20
62978;BME280;49073;42.352;23.808;2022-09-13T19:07:43;94631.00;;;15.49;56.14
62978;BME280;49073;42.352;23.808;2022-09-13T19:10:43;94627.94;;;15.51;57.41
62978;BME280;49073;42.352;23.808;2022-09-13T19:13:44;94627.19;;;15.50;56.92
62978;BME280;49073;42.352;23.808;2022-09-13T19:16:45;94632.19;;;15.41;56.51
62978;BME280;49073;42.352;23.808;2022-09-13T19:19:45;94630.28;;;15.38;56.46
62978;BME280;49073;42.352;23.808;2022-09-13T19:22:46;94633.34;;;15.40;56.38